Terminal Aerodrome Forecast
Issued by NWS

Home | Current Version | Previous Version | Text Only | Print | Product List | Glossary On
Versions: 1 2 3 4 5 6 7 8 9 10 11 12 13 14
000
FTUS42 KMLB 181700 RRA
TAFSFB
TAF
KSFB 181742Z 1818/1918 06006KT P6SM SCT040 SCT250
     FM182100 09007KT P6SM SCT045 SCT250
     FM190200 VRB03KT P6SM FEW030 BKN250
     FM191400 05009KT P6SM SCT025 SCT150 OVC250=

USA.gov is the U.S. government's official web portal to all federal, state and local government web resources and services.